createdAt,value
2019-06-15T00:00:40.177Z,22.53
2019-06-15T00:03:08.335Z,22.83
2019-06-15T00:05:37.223Z,23.00
2019-06-15T00:08:05.270Z,25.07
2019-06-15T00:10:34.266Z,23.90
2019-06-15T00:13:02.142Z,23.90
2019-06-15T00:15:31.504Z,25.80
2019-06-15T00:17:59.695Z,26.97
2019-06-15T00:20:27.758Z,25.97
2019-06-15T00:22:55.726Z,25.93
2019-06-15T00:25:24.996Z,24.30
2019-06-15T00:27:52.920Z,27.03
2019-06-15T00:30:24.684Z,25.10
2019-06-15T00:32:52.505Z,26.90
2019-06-15T00:35:20.446Z,29.77
2019-06-15T00:37:48.342Z,27.75
2019-06-15T00:40:16.386Z,32.38
2019-06-15T00:42:44.317Z,30.00
2019-06-15T00:45:14.353Z,31.45
2019-06-15T00:47:43.074Z,33.65
2019-06-15T00:50:11.077Z,29.50
2019-06-15T00:52:38.957Z,31.17
2019-06-15T00:55:06.940Z,31.70
2019-06-15T00:57:35.007Z,32.90
2019-06-15T01:00:02.907Z,31.90
2019-06-15T01:02:33.144Z,33.23
2019-06-15T01:05:01.022Z,35.33
2019-06-15T01:07:36.280Z,33.63
2019-06-15T01:10:04.463Z,34.25
2019-06-15T01:12:32.733Z,33.60
2019-06-15T01:15:01.655Z,31.23
2019-06-15T01:17:29.582Z,30.40
2019-06-15T01:19:57.893Z,28.62
2019-06-15T01:22:26.169Z,29.77
2019-06-15T01:25:05.091Z,31.97
2019-06-15T01:27:25.087Z,29.85
2019-06-15T01:29:53.766Z,30.17
2019-06-15T01:32:25.521Z,31.30
2019-06-15T01:34:54.391Z,30.62
2019-06-15T01:37:23.740Z,32.40
2019-06-15T01:39:51.634Z,31.15
2019-06-15T01:42:21.365Z,31.70
2019-06-15T01:44:50.788Z,33.18
2019-06-15T01:47:20.189Z,32.55
2019-06-15T01:49:48.094Z,32.88
2019-06-15T01:52:16.266Z,31.73
2019-06-15T01:54:46.999Z,31.55
2019-06-15T01:57:14.906Z,31.10
2019-06-15T01:59:42.763Z,32.98
2019-06-15T02:02:10.669Z,35.03
2019-06-15T02:04:38.649Z,33.90
2019-06-15T02:07:06.544Z,33.13
2019-06-15T02:09:42.321Z,33.70
2019-06-15T02:12:10.651Z,33.18
2019-06-15T02:14:39.574Z,33.02
2019-06-15T02:17:07.488Z,29.80
2019-06-15T02:19:37.044Z,31.90
2019-06-15T02:22:04.965Z,32.20
2019-06-15T02:24:32.970Z,33.02
2019-06-15T02:27:00.827Z,29.25
2019-06-15T02:29:30.156Z,28.25
2019-06-15T02:31:58.046Z,30.12
2019-06-15T02:34:27.958Z,31.93
2019-06-15T02:36:57.358Z,32.05
2019-06-15T02:39:25.831Z,31.97
2019-06-15T02:41:56.906Z,30.20
2019-06-15T02:44:28.789Z,34.78
2019-06-15T02:46:56.706Z,30.68
2019-06-15T02:49:25.138Z,30.85
2019-06-15T02:51:54.060Z,28.95
2019-06-15T02:54:22.200Z,31.20
2019-06-15T02:56:50.117Z,31.02
2019-06-15T02:59:19.896Z,32.48
2019-06-15T03:01:50.231Z,32.70
2019-06-15T03:04:22.274Z,31.73
2019-06-15T03:06:50.312Z,30.55
2019-06-15T03:09:18.200Z,32.03
2019-06-15T03:11:48.953Z,31.50
2019-06-15T03:14:20.079Z,29.37
2019-06-15T03:16:49.085Z,28.07
2019-06-15T03:19:17.039Z,31.57
2019-06-15T03:21:47.878Z,30.70
2019-06-15T03:24:15.775Z,32.73
2019-06-15T03:26:43.791Z,32.15
2019-06-15T03:29:13.531Z,33.25
2019-06-15T03:31:43.709Z,31.80
2019-06-15T03:34:15.265Z,29.77
2019-06-15T03:36:43.161Z,27.32
2019-06-15T03:39:13.327Z,28.50
2019-06-15T03:41:45.157Z,34.18
2019-06-15T03:44:16.262Z,35.23
2019-06-15T03:46:45.712Z,32.45
2019-06-15T03:49:15.334Z,27.75
2019-06-15T03:51:46.290Z,32.40
2019-06-15T03:54:18.055Z,32.00
2019-06-15T03:56:47.387Z,34.65
2019-06-15T03:59:17.631Z,33.30
2019-06-15T04:01:47.865Z,34.20
2019-06-15T04:04:16.011Z,33.35
2019-06-15T04:06:43.996Z,33.60
2019-06-15T04:09:13.118Z,32.40
2019-06-15T04:11:43.634Z,30.32
2019-06-15T04:14:12.640Z,35.60
2019-06-15T04:16:43.249Z,36.23
2019-06-15T04:19:11.511Z,33.85
2019-06-15T04:21:46.765Z,35.20
2019-06-15T04:24:14.727Z,37.88
2019-06-15T04:26:43.551Z,37.10
2019-06-15T04:29:11.541Z,37.15
2019-06-15T04:31:40.157Z,35.58
2019-06-15T04:34:08.271Z,39.27
2019-06-15T04:36:36.267Z,35.73
2019-06-15T04:39:08.518Z,37.35
2019-06-15T04:41:36.432Z,39.67
2019-06-15T04:44:04.437Z,34.88
2019-06-15T04:46:32.403Z,37.17
2019-06-15T04:49:02.493Z,37.65
2019-06-15T04:51:30.834Z,35.23
2019-06-15T04:54:01.074Z,34.85
2019-06-15T04:56:29.166Z,33.92
2019-06-15T04:58:58.302Z,37.03
2019-06-15T05:01:28.217Z,37.30
2019-06-15T05:03:56.237Z,38.23
2019-06-15T05:06:24.133Z,37.95
2019-06-15T05:08:53.181Z,37.20
2019-06-15T05:11:22.534Z,37.48
2019-06-15T05:13:50.442Z,39.25
2019-06-15T05:16:18.309Z,37.28
2019-06-15T05:18:47.665Z,39.40
2019-06-15T05:21:15.569Z,37.35
2019-06-15T05:23:46.594Z,39.42
2019-06-15T05:26:16.826Z,37.40
2019-06-15T05:28:45.747Z,37.80
2019-06-15T05:31:13.658Z,37.20
2019-06-15T05:33:42.947Z,35.35
2019-06-15T05:36:11.085Z,36.77
2019-06-15T05:38:38.954Z,35.55
2019-06-15T05:41:07.324Z,41.18
2019-06-15T05:43:35.533Z,37.42
2019-06-15T05:46:05.155Z,38.33
2019-06-15T05:48:33.049Z,38.78
2019-06-15T05:51:01.220Z,38.80
2019-06-15T05:53:29.062Z,37.25
2019-06-15T05:55:56.970Z,38.65
2019-06-15T05:58:24.854Z,38.20
2019-06-15T06:00:53.078Z,34.10
2019-06-15T06:03:22.238Z,37.17
2019-06-15T06:05:50.134Z,35.50
2019-06-15T06:08:18.096Z,39.25
2019-06-15T06:11:06.337Z,40.67
2019-06-15T06:13:36.353Z,40.45
2019-06-15T06:16:04.258Z,41.63
2019-06-15T06:18:32.105Z,38.98
2019-06-15T06:21:00.026Z,39.42
2019-06-15T06:23:30.653Z,34.53
2019-06-15T06:26:00.818Z,38.70
2019-06-15T06:28:28.710Z,34.40
2019-06-15T06:30:56.657Z,36.03
2019-06-15T06:33:24.491Z,34.80
2019-06-15T06:35:52.312Z,34.88
2019-06-15T06:38:20.130Z,35.70
2019-06-15T06:40:47.969Z,35.83
2019-06-15T06:43:15.789Z,35.25
2019-06-15T06:45:43.914Z,35.95
2019-06-15T06:48:11.730Z,35.03
2019-06-15T06:50:41.322Z,36.40
2019-06-15T06:53:09.273Z,35.17
2019-06-15T06:55:37.094Z,36.85
2019-06-15T06:58:04.951Z,35.33
2019-06-15T07:00:32.775Z,36.77
2019-06-15T07:03:00.686Z,41.05
2019-06-15T07:05:28.509Z,36.55
2019-06-15T07:07:56.377Z,37.33
2019-06-15T07:10:24.185Z,36.15
2019-06-15T07:12:52.025Z,32.58
2019-06-15T07:15:19.938Z,32.03
2019-06-15T07:17:47.723Z,37.47
2019-06-15T07:20:15.561Z,35.13
2019-06-15T07:22:43.598Z,36.20
2019-06-15T07:25:11.533Z,35.33
2019-06-15T07:27:39.357Z,38.65
2019-06-15T07:30:10.412Z,35.75
2019-06-15T07:32:38.289Z,33.73
2019-06-15T07:35:06.151Z,35.50
2019-06-15T07:37:33.978Z,36.50
2019-06-15T07:40:01.851Z,31.97
2019-06-15T07:42:29.678Z,31.62
2019-06-15T07:44:57.562Z,34.35
2019-06-15T07:47:25.442Z,29.17
2019-06-15T07:49:53.293Z,30.15
2019-06-15T07:52:21.144Z,31.25
2019-06-15T07:54:49.107Z,31.85
2019-06-15T07:57:17.027Z,26.15
2019-06-15T07:59:44.926Z,27.83
2019-06-15T08:02:12.830Z,26.07
2019-06-15T08:04:40.676Z,29.07
2019-06-15T08:07:08.487Z,26.90
2019-06-15T08:09:36.339Z,25.15
2019-06-15T08:12:04.176Z,25.00
2019-06-15T08:14:32.017Z,23.42
2019-06-15T08:16:59.874Z,26.07
2019-06-15T08:19:27.725Z,22.67
2019-06-15T08:21:55.583Z,24.00
2019-06-15T08:24:23.415Z,24.67
2019-06-15T08:26:51.368Z,25.20
2019-06-15T08:29:19.175Z,23.53
2019-06-15T08:31:47.068Z,24.07
2019-06-15T08:34:14.926Z,21.62
2019-06-15T08:36:42.799Z,22.03
2019-06-15T08:39:10.670Z,21.23
2019-06-15T08:41:38.565Z,21.85
2019-06-15T08:44:06.388Z,20.90
2019-06-15T08:46:34.256Z,20.97
2019-06-15T08:49:02.187Z,24.43
2019-06-15T08:51:30.126Z,25.70
2019-06-15T08:53:57.991Z,29.03
2019-06-15T08:56:25.878Z,29.72
2019-06-15T08:58:55.751Z,31.07
2019-06-15T09:01:23.327Z,31.27
2019-06-15T09:03:51.215Z,32.45
2019-06-15T09:06:19.095Z,30.10
2019-06-15T09:08:47.051Z,31.62
2019-06-15T09:11:14.856Z,33.70
2019-06-15T09:13:42.747Z,36.42
2019-06-15T09:16:10.565Z,37.23
2019-06-15T09:18:38.494Z,40.08
2019-06-15T09:21:06.341Z,37.65
2019-06-15T09:23:34.217Z,36.88
2019-06-15T09:26:02.078Z,39.00
2019-06-15T09:28:30.090Z,40.50
2019-06-15T09:30:58.049Z,38.23
2019-06-15T09:33:25.985Z,41.75
2019-06-15T09:35:53.839Z,41.80
2019-06-15T09:38:21.766Z,43.85
2019-06-15T09:40:49.623Z,43.83
2019-06-15T09:43:17.469Z,42.35
2019-06-15T09:45:45.336Z,40.65
2019-06-15T09:48:13.236Z,40.50
2019-06-15T09:50:41.075Z,37.88
2019-06-15T09:53:08.945Z,38.57
2019-06-15T09:55:36.779Z,34.90
2019-06-15T09:58:04.667Z,37.28
2019-06-15T10:00:32.545Z,41.50
2019-06-15T10:03:00.451Z,39.10
2019-06-15T10:05:28.322Z,39.30
2019-06-15T10:07:56.283Z,37.17
2019-06-15T10:10:24.155Z,40.50
2019-06-15T10:12:52.036Z,37.23
2019-06-15T10:15:19.931Z,37.67
2019-06-15T10:17:47.790Z,36.13
2019-06-15T10:20:15.746Z,35.37
2019-06-15T10:22:43.622Z,34.45
2019-06-15T10:25:11.482Z,29.27
2019-06-15T10:27:39.331Z,28.30
2019-06-15T10:30:07.734Z,28.73
2019-06-15T10:32:35.556Z,27.03
2019-06-15T10:35:03.426Z,26.17
2019-06-15T10:37:31.332Z,26.93
2019-06-15T10:39:59.312Z,28.27
2019-06-15T10:42:27.137Z,26.30
2019-06-15T10:44:56.126Z,27.73
2019-06-15T10:47:23.954Z,26.70
2019-06-15T10:49:51.813Z,25.97
2019-06-15T10:52:19.642Z,24.87
2019-06-15T10:54:47.506Z,27.87
2019-06-15T10:57:15.322Z,30.93
2019-06-15T10:59:56.406Z,28.23
2019-06-15T11:02:12.823Z,27.67
2019-06-15T11:04:40.815Z,30.83
2019-06-15T11:07:08.708Z,25.60
2019-06-15T11:09:36.602Z,29.47
2019-06-15T11:12:04.537Z,28.07
2019-06-15T11:14:32.382Z,29.63
2019-06-15T11:17:01.174Z,29.03
2019-06-15T11:19:29.043Z,27.50
2019-06-15T11:21:56.966Z,29.00
2019-06-15T11:24:24.845Z,25.80
2019-06-15T11:26:52.791Z,27.15
2019-06-15T11:29:20.674Z,28.80
2019-06-15T11:31:48.691Z,23.77
2019-06-15T11:34:16.562Z,23.30
2019-06-15T11:36:44.441Z,22.00
2019-06-15T11:39:12.324Z,19.85
2019-06-15T11:41:40.184Z,25.32
2019-06-15T11:44:08.033Z,20.77
2019-06-15T11:46:39.118Z,21.85
2019-06-15T11:49:07.023Z,19.37
2019-06-15T11:51:35.075Z,19.23
2019-06-15T11:54:03.023Z,19.15
2019-06-15T11:56:30.999Z,20.10
2019-06-15T11:58:58.962Z,20.35
2019-06-15T12:01:26.873Z,19.53
2019-06-15T12:03:54.769Z,18.83
2019-06-15T12:06:22.685Z,18.60
2019-06-15T12:08:50.522Z,17.80
2019-06-15T12:11:18.403Z,18.27
2019-06-15T12:13:46.327Z,19.90
2019-06-15T12:16:14.188Z,19.00
2019-06-15T12:18:42.249Z,23.05
2019-06-15T12:21:10.135Z,21.13
2019-06-15T12:23:38.143Z,21.00
2019-06-15T12:26:06.077Z,24.72
2019-06-15T12:28:34.022Z,22.42
2019-06-15T12:31:01.973Z,24.47
2019-06-15T12:33:29.939Z,22.87
2019-06-15T12:35:57.892Z,23.05
2019-06-15T12:38:25.762Z,23.20
2019-06-15T12:40:53.624Z,23.33
2019-06-15T12:43:21.506Z,22.10
2019-06-15T12:45:49.386Z,23.70
2019-06-15T12:48:17.234Z,23.10
2019-06-15T12:50:45.110Z,22.07
2019-06-15T12:53:13.057Z,22.60
2019-06-15T12:55:40.957Z,22.83
2019-06-15T12:58:08.874Z,21.33
2019-06-15T13:00:37.535Z,21.63
2019-06-15T13:03:05.473Z,20.23
2019-06-15T13:05:33.359Z,19.87
2019-06-15T13:08:01.496Z,19.40
2019-06-15T13:10:29.378Z,18.10
2019-06-15T13:12:57.196Z,18.83
2019-06-15T13:15:25.080Z,17.40
2019-06-15T13:17:52.936Z,17.60
2019-06-15T13:20:20.809Z,17.07
2019-06-15T13:22:48.671Z,19.10
2019-06-15T13:25:16.625Z,19.27
2019-06-15T13:27:44.452Z,19.63
2019-06-15T13:30:22.711Z,18.20
2019-06-15T13:32:50.603Z,19.00
2019-06-15T13:35:18.513Z,18.07
2019-06-15T13:37:46.398Z,18.00
2019-06-15T13:40:14.271Z,18.50
2019-06-15T13:42:42.223Z,16.67
2019-06-15T13:45:10.177Z,18.13
2019-06-15T13:47:38.013Z,17.33
2019-06-15T13:50:05.956Z,17.00
2019-06-15T13:52:33.803Z,16.13
2019-06-15T13:55:01.690Z,19.27
2019-06-15T13:57:29.596Z,18.83
2019-06-15T13:59:57.422Z,17.00
2019-06-15T14:02:25.420Z,16.27
2019-06-15T14:04:53.261Z,16.90
2019-06-15T14:07:21.122Z,17.67
2019-06-15T14:09:48.957Z,16.53
2019-06-15T14:12:16.858Z,17.33
2019-06-15T14:14:44.790Z,18.20
2019-06-15T14:17:12.729Z,16.80
2019-06-15T14:19:40.586Z,17.07
2019-06-15T14:22:08.497Z,16.77
2019-06-15T14:24:36.331Z,17.80
2019-06-15T14:27:04.237Z,16.73
2019-06-15T14:29:32.098Z,17.30
2019-06-15T14:32:00.432Z,17.20
2019-06-15T14:34:28.289Z,16.60
2019-06-15T14:36:56.168Z,17.30
2019-06-15T14:39:24.018Z,17.60
2019-06-15T14:41:51.851Z,16.93
2019-06-15T14:44:19.716Z,16.97
2019-06-15T14:46:47.631Z,17.27
2019-06-15T14:49:15.491Z,17.50
2019-06-15T14:51:43.298Z,21.80
2019-06-15T14:54:11.219Z,17.67
2019-06-15T14:56:39.063Z,34.40
2019-06-15T14:59:06.926Z,17.77
2019-06-15T15:01:35.218Z,17.40
2019-06-15T15:04:03.202Z,17.00
2019-06-15T15:06:31.034Z,18.77
2019-06-15T15:08:58.896Z,17.17
2019-06-15T15:11:26.746Z,17.73
2019-06-15T15:13:56.203Z,16.73
2019-06-15T15:16:24.170Z,17.20
2019-06-15T15:18:52.081Z,17.27
2019-06-15T15:21:20.226Z,16.83
2019-06-15T15:23:48.067Z,17.30
2019-06-15T15:26:17.127Z,20.47
2019-06-15T15:28:47.286Z,20.10
2019-06-15T15:31:17.180Z,17.17
2019-06-15T15:33:47.404Z,17.20
2019-06-15T15:36:14.030Z,17.50
2019-06-15T15:38:42.567Z,17.57
2019-06-15T15:41:10.459Z,18.93
2019-06-15T15:43:38.326Z,17.93
2019-06-15T15:46:07.106Z,17.90
2019-06-15T15:48:36.339Z,18.50
2019-06-15T15:51:06.478Z,21.67
2019-06-15T15:53:33.889Z,17.53
2019-06-15T15:56:01.774Z,16.80
2019-06-15T15:58:29.630Z,17.40
2019-06-15T16:00:57.466Z,17.27
2019-06-15T16:03:26.449Z,17.07
2019-06-15T16:05:56.100Z,16.50
2019-06-15T16:08:25.991Z,16.80
2019-06-15T16:10:53.828Z,17.13
2019-06-15T16:13:21.745Z,18.03
2019-06-15T16:15:49.671Z,18.10
2019-06-15T16:18:17.564Z,17.33
2019-06-15T16:20:47.058Z,19.20
2019-06-15T16:23:16.097Z,22.33
2019-06-15T16:25:46.213Z,19.10
2019-06-15T16:28:13.875Z,17.63
2019-06-15T16:31:01.865Z,17.37
2019-06-15T16:33:16.014Z,17.90
2019-06-15T16:35:42.908Z,17.10
2019-06-15T16:38:10.845Z,17.57
2019-06-15T16:40:39.300Z,16.90
2019-06-15T16:43:07.619Z,17.20
2019-06-15T16:45:35.607Z,16.70
2019-06-15T16:48:06.215Z,19.17
2019-06-15T16:50:36.320Z,17.40
2019-06-15T16:53:04.439Z,17.33
2019-06-15T16:55:32.387Z,17.63
2019-06-15T16:58:00.282Z,18.20
2019-06-15T17:00:28.231Z,18.37
2019-06-15T17:02:57.182Z,17.40
2019-06-15T17:05:27.435Z,18.60
2019-06-15T17:07:56.465Z,17.43
2019-06-15T17:10:30.852Z,18.00
2019-06-15T17:13:01.076Z,18.23
2019-06-15T17:15:32.231Z,18.07
2019-06-15T17:18:00.198Z,17.80
2019-06-15T17:20:29.623Z,18.37
2019-06-15T17:22:59.275Z,17.17
2019-06-15T17:25:27.189Z,17.50
2019-06-15T17:27:56.291Z,19.70
2019-06-15T17:30:26.450Z,18.00
2019-06-15T17:32:56.626Z,18.90
2019-06-15T17:35:24.227Z,17.80
2019-06-15T17:37:52.220Z,17.97
2019-06-15T17:40:22.474Z,19.10
2019-06-15T17:42:50.454Z,17.90
2019-06-15T17:45:18.448Z,19.80
2019-06-15T17:47:46.912Z,18.20
2019-06-15T17:50:17.120Z,18.27
2019-06-15T17:52:46.819Z,18.80
2019-06-15T17:55:14.484Z,19.30
2019-06-15T17:57:42.727Z,19.43
2019-06-15T18:00:11.832Z,19.67
2019-06-15T18:02:39.833Z,20.70
2019-06-15T18:05:07.904Z,19.80
2019-06-15T18:07:36.089Z,19.63
2019-06-15T18:10:07.044Z,19.10
2019-06-15T18:12:34.284Z,20.43
2019-06-15T18:15:03.979Z,18.50
2019-06-15T18:17:41.551Z,21.20
2019-06-15T18:20:10.691Z,18.47
2019-06-15T18:22:38.715Z,18.85
2019-06-15T18:25:06.696Z,19.00
2019-06-15T18:27:37.354Z,19.00
2019-06-15T18:30:06.557Z,19.63
2019-06-15T18:32:37.654Z,20.80
2019-06-15T18:35:06.146Z,19.13
2019-06-15T18:37:36.888Z,18.73
2019-06-15T18:40:06.463Z,20.10
2019-06-15T18:42:36.873Z,19.53
2019-06-15T18:45:06.678Z,18.90
2019-06-15T18:47:36.385Z,19.90
2019-06-15T18:50:06.972Z,20.53
2019-06-15T18:52:33.986Z,19.37
2019-06-15T18:55:01.927Z,20.27
2019-06-15T18:57:29.879Z,19.45
2019-06-15T18:59:57.804Z,19.00
2019-06-15T19:02:26.700Z,20.00
2019-06-15T19:04:57.202Z,19.17
2019-06-15T19:07:26.967Z,18.07
2019-06-15T19:09:55.958Z,21.80
2019-06-15T19:12:37.245Z,19.40
2019-06-15T19:15:07.273Z,19.90
2019-06-15T19:17:37.108Z,19.15
2019-06-15T19:20:05.118Z,19.95
2019-06-15T19:22:33.066Z,20.72
2019-06-15T19:25:01.045Z,20.93
2019-06-15T19:27:29.993Z,19.60
2019-06-15T19:30:00.046Z,21.30
2019-06-15T19:32:27.987Z,19.65
2019-06-15T19:34:57.005Z,19.77
2019-06-15T19:37:26.062Z,19.85
2019-06-15T19:39:56.383Z,19.65
2019-06-15T19:42:26.006Z,21.85
2019-06-15T19:44:56.364Z,20.35
2019-06-15T19:47:26.452Z,20.25
2019-06-15T19:49:54.008Z,21.35
2019-06-15T19:52:22.674Z,20.50
2019-06-15T19:54:50.625Z,20.10
2019-06-15T19:57:18.545Z,21.10
2019-06-15T19:59:47.497Z,22.65
2019-06-15T20:02:16.811Z,21.42
2019-06-15T20:04:59.669Z,21.35
2019-06-15T20:07:17.213Z,21.25
2019-06-15T20:09:46.277Z,23.02
2019-06-15T20:12:19.155Z,21.95
2019-06-15T20:14:46.240Z,20.97
2019-06-15T20:17:14.029Z,21.80
2019-06-15T20:19:42.008Z,23.67
2019-06-15T20:22:11.110Z,21.02
2019-06-15T20:24:39.039Z,20.48
2019-06-15T20:27:10.122Z,20.70
2019-06-15T20:29:36.674Z,21.02
2019-06-15T20:32:06.869Z,23.22
2019-06-15T20:34:36.884Z,21.37
2019-06-15T20:37:03.855Z,20.95
2019-06-15T20:39:31.805Z,19.95
2019-06-15T20:41:59.805Z,19.50
2019-06-15T20:44:27.719Z,20.05
2019-06-15T20:46:57.067Z,20.20
2019-06-15T20:49:25.102Z,19.95
2019-06-15T20:51:53.166Z,20.68
2019-06-15T20:54:21.069Z,20.62
2019-06-15T20:56:49.058Z,19.85
2019-06-15T20:59:17.081Z,19.80
2019-06-15T21:01:45.127Z,20.00
2019-06-15T21:04:13.024Z,21.60
2019-06-15T21:06:40.989Z,22.75
2019-06-15T21:09:08.904Z,21.85
2019-06-15T21:11:39.706Z,21.33
2019-06-15T21:14:08.041Z,20.48
2019-06-15T21:16:37.014Z,19.77
2019-06-15T21:19:06.611Z,21.07
2019-06-15T21:21:37.220Z,21.65
2019-06-15T21:24:06.402Z,21.00
2019-06-15T21:26:35.273Z,20.00
2019-06-15T21:29:03.265Z,24.18
2019-06-15T21:31:32.391Z,21.55
2019-06-15T21:34:00.611Z,21.52
2019-06-15T21:36:28.506Z,19.55
2019-06-15T21:38:56.813Z,21.77
2019-06-15T21:41:26.294Z,22.15
2019-06-15T21:43:56.375Z,22.87
2019-06-15T21:46:26.531Z,26.40
2019-06-15T21:48:53.644Z,22.22
2019-06-15T21:51:21.522Z,23.20
2019-06-15T21:53:49.521Z,24.02
2019-06-15T21:56:17.436Z,22.95
2019-06-15T21:58:45.368Z,21.90
2019-06-15T22:01:17.519Z,25.95
2019-06-15T22:03:46.557Z,25.50
2019-06-15T22:06:16.624Z,23.57
2019-06-15T22:08:44.277Z,24.92
2019-06-15T22:11:12.231Z,23.35
2019-06-15T22:13:42.061Z,23.83
2019-06-15T22:16:13.849Z,22.52
2019-06-15T22:18:41.243Z,21.68
2019-06-15T22:21:10.070Z,24.70
2019-06-15T22:23:38.104Z,22.75
2019-06-15T22:26:09.587Z,23.55
2019-06-15T22:28:37.467Z,24.55
2019-06-15T22:31:06.622Z,25.17
2019-06-15T22:33:36.327Z,23.60
2019-06-15T22:36:20.267Z,24.45
2019-06-15T22:38:36.691Z,23.50
2019-06-15T22:41:05.893Z,25.43
2019-06-15T22:43:33.475Z,26.25
2019-06-15T22:46:01.363Z,26.35
2019-06-15T22:48:31.471Z,24.43
2019-06-15T22:50:59.761Z,26.02
2019-06-15T22:53:27.629Z,24.27
2019-06-15T22:55:57.184Z,27.15
2019-06-15T22:58:29.579Z,25.25
2019-06-15T23:00:57.578Z,22.62
2019-06-15T23:03:26.196Z,27.77
2019-06-15T23:05:56.978Z,24.85
2019-06-15T23:08:26.881Z,25.05
2019-06-15T23:10:56.940Z,24.70
2019-06-15T23:13:26.159Z,23.52
2019-06-15T23:15:56.410Z,24.60
2019-06-15T23:18:23.920Z,24.70
2019-06-15T23:20:51.796Z,26.60
2019-06-15T23:23:20.833Z,25.25
2019-06-15T23:25:48.662Z,25.00
2019-06-15T23:28:16.757Z,26.95
2019-06-15T23:30:47.249Z,24.60
2019-06-15T23:33:17.011Z,24.63
2019-06-15T23:35:49.614Z,27.30
2019-06-15T23:38:19.228Z,26.95
2019-06-15T23:40:48.630Z,25.77
2019-06-15T23:43:16.789Z,25.40
2019-06-15T23:45:46.818Z,25.55
2019-06-15T23:48:16.095Z,26.90
2019-06-15T23:50:46.266Z,24.52
2019-06-15T23:53:13.762Z,25.95
2019-06-15T23:55:41.615Z,24.47
2019-06-15T23:58:09.466Z,26.57
